Time;durP1;ratioP1;P1;durP2;ratioP2;P2;SDS_P1;SDS_P2;PMS_P1;PMS_P2;Temp;Humidity;BMP_temperature;BMP_pressure;BME280_temperature;BME280_humidity;BME280_pressure;Samples;Min_cycle;Max_cycle;Signal;HPM_P1;HPM_P2
2020/12/18 00:01:31;;;;;;;7.88;4.85;;;;;;;12.80;65.86;101560.53;4891878;29;20084;-92
2020/12/18 00:03:58;;;;;;;6.10;4.88;;;;;;;12.66;65.94;101551.97;4893212;29;20053;-91
2020/12/18 00:06:31;;;;;;;6.78;4.43;;;;;;;12.23;65.93;101494.25;4893192;29;20052;-91
2020/12/18 00:08:57;;;;;;;7.25;4.55;;;;;;;12.22;66.05;101496.06;4885473;29;20144;-91
2020/12/18 00:11:25;;;;;;;7.50;5.45;;;;;;;12.44;65.94;101534.53;4891080;29;20064;-91
2020/12/18 00:13:52;;;;;;;6.35;4.93;;;;;;;10.81;65.61;101266.06;4885737;29;20424;-91
2020/12/18 00:16:18;;;;;;;7.40;4.65;;;;;;;12.06;65.82;101477.25;4891414;29;20084;-91
2020/12/18 00:18:46;;;;;;;6.32;4.68;;;;;;;10.34;65.08;101213.00;4904758;29;20407;-92
2020/12/18 00:21:17;;;;;;;7.10;4.97;;;;;;;12.61;65.33;101562.03;4894464;29;20066;-92
2020/12/18 00:23:43;;;;;;;7.05;4.68;;;;;;;12.10;65.46;101489.13;4891852;29;20088;-92
2020/12/18 00:26:09;;;;;;;9.02;4.57;;;;;;;10.73;65.05;101259.78;4908387;29;20044;-91
2020/12/18 00:28:35;;;;;;;7.43;4.85;;;;;;;12.56;65.79;101563.38;4906839;29;20048;-92
2020/12/18 00:31:01;;;;;;;6.72;4.55;;;;;;;12.54;65.35;101565.28;4892057;29;20093;-91
2020/12/18 00:33:27;;;;;;;6.18;4.55;;;;;;;12.41;65.47;101545.25;4886659;29;20072;-91
2020/12/18 00:35:53;;;;;;;7.13;5.05;;;;;;;12.07;65.04;101493.81;4897719;29;20449;-92
2020/12/18 00:38:20;;;;;;;7.15;5.03;;;;;;;11.77;65.22;101451.47;4895780;29;20079;-91
2020/12/18 00:40:46;;;;;;;6.50;4.72;;;;;;;12.35;65.06;101550.16;4894219;29;20052;-91
2020/12/18 00:43:12;;;;;;;7.00;5.03;;;;;;;11.83;64.89;101477.25;4897553;29;20076;-91
2020/12/18 00:45:38;;;;;;;6.80;5.22;;;;;;;12.19;64.76;101540.88;4894424;29;20148;-91
2020/12/18 00:48:04;;;;;;;6.68;4.53;;;;;;;11.84;64.99;101484.13;4897244;29;20061;-91
2020/12/18 00:50:31;;;;;;;7.57;4.65;;;;;;;11.95;64.87;101506.94;4910857;29;20095;-91
2020/12/18 00:52:57;;;;;;;6.88;4.68;;;;;;;12.22;65.00;101561.63;4910220;29;20084;-92
2020/12/18 00:55:23;;;;;;;10.45;4.95;;;;;;;12.08;64.89;101550.53;4897853;29;20088;-92
2020/12/18 00:57:49;;;;;;;7.50;4.85;;;;;;;11.51;64.76;101466.63;4896574;29;20139;-92
2020/12/18 01:00:16;;;;;;;8.68;5.30;;;;;;;12.05;64.75;101548.97;4895226;29;20052;-92
2020/12/18 01:02:42;;;;;;;6.55;4.40;;;;;;;12.09;65.19;101571.41;4900291;29;20060;-92
2020/12/18 01:05:08;;;;;;;6.78;4.47;;;;;;;11.77;65.34;101535.34;4894228;29;20206;-91
2020/12/18 01:07:34;;;;;;;6.55;4.75;;;;;;;11.84;64.92;101539.19;4893809;29;20160;-91
2020/12/18 01:10:00;;;;;;;8.27;4.95;;;;;;;10.50;65.28;101327.72;4896928;29;20086;-92
2020/12/18 01:12:27;;;;;;;6.68;4.63;;;;;;;10.48;65.22;101333.09;4911887;29;20501;-91
2020/12/18 01:14:53;;;;;;;6.65;4.72;;;;;;;10.33;65.18;101302.84;4909976;29;20056;-92
2020/12/18 01:17:19;;;;;;;7.03;5.07;;;;;;;11.80;65.35;101539.53;4907432;29;20505;-91
2020/12/18 01:19:45;;;;;;;6.78;4.68;;;;;;;8.07;64.69;100939.97;4903541;29;20044;-92
2020/12/18 01:22:11;;;;;;;6.90;4.60;;;;;;;11.79;64.88;101546.56;4892144;29;20084;-91
2020/12/18 01:24:38;;;;;;;8.13;4.97;;;;;;;10.82;65.21;101406.41;4908537;29;20080;-92
2020/12/18 01:27:04;;;;;;;6.20;4.63;;;;;;;11.31;64.97;101488.28;4908881;29;20136;-92
2020/12/18 01:29:30;;;;;;;6.78;4.65;;;;;;;10.56;65.07;101370.88;4895890;29;20052;-92
2020/12/18 01:31:56;;;;;;;10.15;5.03;;;;;;;11.94;65.45;101598.78;4908304;29;20062;-91
2020/12/18 01:34:22;;;;;;;6.85;4.43;;;;;;;11.67;65.24;101571.09;4894742;29;20051;-91
2020/12/18 01:36:48;;;;;;;7.47;4.38;;;;;;;11.32;65.20;101508.28;4894293;29;20060;-92
2020/12/18 01:39:14;;;;;;;8.00;4.38;;;;;;;11.47;65.70;101549.00;4890363;29;20092;-92
2020/12/18 01:41:40;;;;;;;7.30;4.18;;;;;;;11.66;65.43;101595.63;4909545;29;20524;-92
2020/12/18 01:44:06;;;;;;;6.20;3.95;;;;;;;11.82;65.90;101611.03;4892465;29;20112;-92
2020/12/18 01:46:33;;;;;;;7.95;4.43;;;;;;;11.70;65.62;101591.81;4886533;29;20454;-92
2020/12/18 01:48:59;;;;;;;5.03;4.05;;;;;;;11.74;66.00;101597.66;4893593;29;20139;-92
2020/12/18 01:51:45;;;;;;;5.65;3.97;;;;;;;11.80;65.87;101629.47;4895797;29;20493;-92
2020/12/18 01:54:12;;;;;;;5.95;4.85;;;;;;;11.57;65.64;101580.59;4894362;29;20144;-92
2020/12/18 01:56:38;;;;;;;7.90;4.13;;;;;;;10.55;66.00;101413.69;4896299;29;20080;-92
2020/12/18 01:59:05;;;;;;;5.15;3.83;;;;;;;11.65;66.08;101604.44;4893302;29;20483;-92
2020/12/18 02:01:31;;;;;;;6.63;4.18;;;;;;;11.38;66.22;101549.72;4888808;29;20052;-92
2020/12/18 02:03:57;;;;;;;5.78;4.55;;;;;;;11.32;66.19;101555.41;4893099;29;20469;-92
2020/12/18 02:06:26;;;;;;;5.60;4.10;;;;;;;11.60;66.32;101590.84;4908709;29;20060;-92
2020/12/18 02:08:53;;;;;;;6.68;4.10;;;;;;;11.01;66.50;101488.81;4892726;29;20098;-92
2020/12/18 02:11:23;;;;;;;7.93;4.13;;;;;;;11.56;66.52;101586.81;4894360;29;20055;-91
2020/12/18 02:13:50;;;;;;;5.93;4.00;;;;;;;9.27;65.55;101228.72;4893954;29;20089;-92
2020/12/18 02:16:17;;;;;;;7.05;4.45;;;;;;;11.29;65.86;101551.22;4910106;29;20088;-91
2020/12/18 02:18:43;;;;;;;6.85;4.07;;;;;;;11.57;66.42;101596.31;4893878;29;20404;-91
2020/12/18 02:21:09;;;;;;;8.15;4.38;;;;;;;8.97;66.08;101187.38;4895779;29;20048;-92
2020/12/18 02:23:43;;;;;;;6.10;4.28;;;;;;;10.00;65.60;101320.06;4906793;29;20080;-92
2020/12/18 02:26:11;;;;;;;5.78;4.40;;;;;;;11.10;66.29;101509.88;4905945;29;20137;-91
2020/12/18 02:28:39;;;;;;;5.78;4.13;;;;;;;11.77;66.23;101618.41;4892093;29;20048;-92
2020/12/18 02:31:06;;;;;;;7.22;4.38;;;;;;;11.76;66.38;101616.72;4893913;29;20136;-92
2020/12/18 02:33:33;;;;;;;8.75;5.05;;;;;;;11.75;66.07;101621.16;4891995;29;20066;-92
2020/12/18 02:36:00;;;;;;;6.57;4.45;;;;;;;10.57;65.93;101432.75;4907846;29;20057;-92
2020/12/18 02:38:28;;;;;;;5.20;4.15;;;;;;;11.50;66.04;101601.19;4894988;29;20684;-92
2020/12/18 02:40:54;;;;;;;7.18;4.03;;;;;;;11.63;66.41;101610.75;4906011;29;20143;-92
2020/12/18 02:43:21;;;;;;;5.05;4.03;;;;;;;11.49;66.50;101588.19;4888541;29;20155;-92
2020/12/18 02:45:47;;;;;;;8.25;4.47;;;;;;;11.72;66.36;101625.75;4891960;29;20143;-92
2020/12/18 02:48:14;;;;;;;5.22;4.32;;;;;;;11.60;65.92;101609.19;4894832;29;20101;-91
2020/12/18 02:50:40;;;;;;;6.57;4.47;;;;;;;11.61;66.19;101608.22;4910819;29;20127;-92
2020/12/18 02:53:14;;;;;;;6.30;3.60;;;;;;;11.46;66.01;101562.25;4888166;29;20143;-92
2020/12/18 02:55:42;;;;;;;4.63;3.93;;;;;;;11.29;65.57;101551.22;4892286;29;20131;-92
2020/12/18 02:58:12;;;;;;;6.13;3.85;;;;;;;11.38;66.08;101553.16;4894368;29;20415;-91
2020/12/18 03:00:40;;;;;;;5.85;3.95;;;;;;;11.73;66.29;101612.56;4892365;29;20044;-91
2020/12/18 03:03:06;;;;;;;7.22;4.35;;;;;;;11.57;66.42;101593.69;4893919;29;20113;-92
2020/12/18 03:05:33;;;;;;;7.85;5.05;;;;;;;11.56;66.00;101594.66;4892129;29;20497;-92
2020/12/18 03:08:00;;;;;;;6.30;4.00;;;;;;;10.84;66.20;101483.03;4892081;29;20120;-91
2020/12/18 03:10:26;;;;;;;6.90;4.35;;;;;;;11.39;66.26;101577.59;4892473;29;20051;-91
2020/12/18 03:12:53;;;;;;;5.28;4.10;;;;;;;11.43;65.89;101583.44;4893634;29;20053;-91
2020/12/18 03:15:19;;;;;;;4.85;4.10;;;;;;;11.34;66.13;101572.69;4892360;29;20056;-92
2020/12/18 03:17:45;;;;;;;6.70;4.03;;;;;;;11.46;66.38;101589.25;4892610;29;20049;-91
2020/12/18 03:20:11;;;;;;;6.35;3.95;;;;;;;11.70;66.45;101627.69;4907736;29;20104;-92
2020/12/18 03:22:44;;;;;;;6.20;4.55;;;;;;;11.70;66.00;101623.28;4888909;29;20124;-91
2020/12/18 03:25:10;;;;;;;7.43;4.30;;;;;;;11.11;66.39;101518.56;4893632;29;20075;-92
2020/12/18 03:27:36;;;;;;;5.50;4.07;;;;;;;11.49;66.41;101590.81;4893600;29;20404;-92
2020/12/18 03:30:04;;;;;;;6.25;3.92;;;;;;;8.26;65.74;101068.00;4890505;29;20460;-91
2020/12/18 03:32:30;;;;;;;5.00;4.15;;;;;;;11.71;66.15;101616.25;4900854;29;20080;-91
2020/12/18 03:34:56;;;;;;;7.25;4.60;;;;;;;10.09;66.04;101355.13;4893715;29;20060;-92
2020/12/18 03:37:22;;;;;;;6.55;4.30;;;;;;;11.71;66.04;101616.25;4892615;29;20054;-92
2020/12/18 03:39:48;;;;;;;6.63;4.45;;;;;;;11.59;66.29;101597.88;4908372;29;20533;-92
2020/12/18 03:42:14;;;;;;;7.22;5.30;;;;;;;11.05;65.92;101506.75;4893695;29;20055;-92
2020/12/18 03:44:40;;;;;;;6.13;4.45;;;;;;;11.14;66.13;101531.41;4903397;29;20467;-92
2020/12/18 03:47:06;;;;;;;5.93;4.38;;;;;;;10.06;66.21;101355.38;4894445;29;20053;-92
2020/12/18 03:49:35;;;;;;;8.88;5.05;;;;;;;11.47;66.13;101590.09;4893395;29;20552;-91
2020/12/18 03:52:02;;;;;;;8.02;5.35;;;;;;;10.12;65.89;101380.22;4905161;29;20060;-91
2020/12/18 03:54:28;;;;;;;6.93;4.82;;;;;;;11.69;66.15;101624.22;4891970;29;20059;-92
2020/12/18 03:56:55;;;;;;;5.38;4.47;;;;;;;10.44;65.69;101417.94;4893564;29;20584;-92
2020/12/18 03:59:21;;;;;;;5.95;4.75;;;;;;;9.99;65.97;101348.91;4895084;29;20049;-92
2020/12/18 04:01:47;;;;;;;8.10;4.68;;;;;;;11.46;66.18;101585.81;4911269;29;20413;-92
2020/12/18 04:04:14;;;;;;;7.40;5.10;;;;;;;10.23;65.96;101388.13;4895348;29;20057;-92
2020/12/18 04:06:41;;;;;;;8.10;4.93;;;;;;;11.16;66.28;101558.34;4894554;29;20064;-92
2020/12/18 04:09:07;;;;;;;10.30;5.63;;;;;;;11.05;66.14;101530.31;4910000;29;20485;-92
2020/12/18 04:11:33;;;;;;;7.22;5.32;;;;;;;11.16;66.23;101547.84;4897189;29;20070;-92
2020/12/18 04:13:59;;;;;;;6.43;4.97;;;;;;;11.12;66.04;101543.81;4891893;29;20179;-92
2020/12/18 04:16:25;;;;;;;6.93;4.85;;;;;;;11.47;66.33;101611.88;4909797;29;20064;-92
2020/12/18 04:18:51;;;;;;;8.20;4.97;;;;;;;10.33;66.09;101410.03;4893719;29;20121;-92
2020/12/18 04:21:17;;;;;;;8.63;5.10;;;;;;;10.10;66.37;101372.47;4895352;29;20080;-92
2020/12/18 04:23:44;;;;;;;6.63;5.40;;;;;;;11.33;66.09;101588.50;4907349;29;20080;-92
2020/12/18 04:26:10;;;;;;;8.20;5.00;;;;;;;9.93;65.76;101359.81;4909063;29;20076;-92
2020/12/18 04:28:36;;;;;;;8.55;5.22;;;;;;;11.58;66.22;101625.03;4899280;29;20056;-92
2020/12/18 04:31:02;;;;;;;6.78;5.00;;;;;;;10.68;66.41;101485.09;4906467;29;20060;-93
2020/12/18 04:33:29;;;;;;;6.75;5.38;;;;;;;10.10;65.94;101376.88;4896297;29;20065;-92
2020/12/18 04:35:55;;;;;;;7.68;5.00;;;;;;;11.49;66.20;101609.16;4890758;29;20057;-92
2020/12/18 04:38:21;;;;;;;7.13;4.80;;;;;;;10.99;65.79;101515.06;4894583;29;20104;-92
2020/12/18 04:40:47;;;;;;;8.00;5.63;;;;;;;11.73;66.17;101637.94;4907759;29;20072;-92
2020/12/18 04:43:13;;;;;;;7.95;5.03;;;;;;;11.73;66.14;101648.41;4894115;29;20065;-92
2020/12/18 04:45:41;;;;;;;8.35;5.50;;;;;;;9.88;65.99;101346.22;4896857;29;20104;-92
2020/12/18 04:48:10;;;;;;;6.28;5.15;;;;;;;11.72;66.10;101631.00;4891626;29;20147;-92
2020/12/18 04:50:37;;;;;;;8.50;5.82;;;;;;;11.60;65.95;101617.88;4895726;29;20492;-92
2020/12/18 04:53:03;;;;;;;6.75;5.03;;;;;;;10.39;65.36;101427.91;4905696;29;20490;-92
2020/12/18 04:55:36;;;;;;;8.85;5.13;;;;;;;11.23;65.54;101553.50;4910856;29;20188;-92
2020/12/18 04:58:05;;;;;;;7.18;5.20;;;;;;;11.48;65.55;101595.22;4910171;29;20062;-92
2020/12/18 05:00:34;;;;;;;6.15;5.10;;;;;;;11.79;65.94;101634.84;4893558;29;20552;-92
2020/12/18 05:03:01;;;;;;;6.20;4.75;;;;;;;11.13;65.47;101550.69;4904901;29;20059;-92
2020/12/18 05:05:27;;;;;;;8.02;5.13;;;;;;;11.70;65.78;101638.16;4906567;29;20063;-92
2020/12/18 05:07:53;;;;;;;7.85;5.55;;;;;;;7.73;64.73;100991.81;4894812;29;20124;-92
2020/12/18 05:10:20;;;;;;;5.80;5.18;;;;;;;11.66;65.67;101626.22;4894492;29;20132;-93
2020/12/18 05:12:46;;;;;;;7.10;5.00;;;;;;;11.56;65.31;101615.63;4896312;29;20063;-92
2020/12/18 05:15:12;;;;;;;7.63;5.13;;;;;;;11.27;65.51;101568.00;4910737;29;20140;-92
2020/12/18 05:17:38;;;;;;;8.40;5.85;;;;;;;11.55;65.49;101611.31;4895393;29;20056;-92
2020/12/18 05:20:04;;;;;;;7.47;5.55;;;;;;;11.43;65.53;101614.84;4893126;29;20119;-92
2020/12/18 05:22:31;;;;;;;9.27;5.47;;;;;;;11.63;65.19;101635.16;4907794;29;20061;-91
2020/12/18 05:24:57;;;;;;;7.43;6.35;;;;;;;11.62;65.36;101641.34;4896206;29;20139;-92
2020/12/18 05:27:23;;;;;;;10.10;5.65;;;;;;;11.18;65.39;101561.69;4894543;29;20063;-92
2020/12/18 05:29:49;;;;;;;7.45;5.57;;;;;;;9.86;65.05;101345.50;4892893;29;20071;-93
2020/12/18 05:32:16;;;;;;;6.55;5.43;;;;;;;11.38;65.16;101616.03;4895697;29;20066;-93
2020/12/18 05:34:45;;;;;;;8.02;5.40;;;;;;;11.29;64.82;101579.22;4891404;29;20101;-93
2020/12/18 05:37:13;;;;;;;7.80;5.93;;;;;;;11.25;65.29;101596.94;4890391;29;20639;-91
2020/12/18 05:39:40;;;;;;;6.60;4.97;;;;;;;9.76;64.98;101351.41;4894230;29;20056;-93
2020/12/18 05:42:07;;;;;;;8.27;5.82;;;;;;;11.25;65.07;101615.28;4911548;29;20143;-92
2020/12/18 05:44:33;;;;;;;11.00;5.68;;;;;;;8.18;64.90;101095.53;4892301;29;20219;-93
2020/12/18 05:47:10;;;;;;;8.13;5.47;;;;;;;10.71;65.00;101503.19;4896111;29;20056;-93
2020/12/18 05:49:38;;;;;;;7.35;5.43;;;;;;;11.48;64.82;101644.16;4894466;29;20136;-92
2020/12/18 05:52:07;;;;;;;7.90;5.22;;;;;;;11.23;65.50;101614.56;4906539;29;20176;-93
2020/12/18 05:54:40;;;;;;;7.00;5.40;;;;;;;11.50;65.38;101637.88;4894734;29;20060;-93
2020/12/18 05:57:14;;;;;;;8.35;5.75;;;;;;;11.52;64.68;101635.13;4908591;29;20053;-93
2020/12/18 05:59:43;;;;;;;8.48;5.18;;;;;;;11.39;65.40;101629.97;4891163;29;20044;-93
2020/12/18 06:02:13;;;;;;;8.65;6.15;;;;;;;11.37;64.97;101632.69;4888053;29;20052;-92
2020/12/18 06:04:40;;;;;;;8.05;5.53;;;;;;;11.21;65.05;101616.44;4893869;29;20071;-92
2020/12/18 06:07:06;;;;;;;8.73;5.65;;;;;;;11.12;64.77;101611.88;4893018;29;20347;-91
2020/12/18 06:09:35;;;;;;;7.05;5.68;;;;;;;11.13;65.06;101613.53;4891353;29;20084;-91
2020/12/18 06:12:09;;;;;;;6.60;5.25;;;;;;;11.41;65.21;101635.91;4892577;29;20087;-92
2020/12/18 06:14:45;;;;;;;9.90;5.97;;;;;;;11.26;65.07;101645.75;4896083;29;20076;-92
2020/12/18 06:17:15;;;;;;;7.78;5.32;;;;;;;10.29;65.47;101487.03;4896011;29;20489;-92
2020/12/18 06:19:43;;;;;;;7.68;5.15;;;;;;;11.12;65.44;101628.41;4895482;29;20424;-92
2020/12/18 06:22:13;;;;;;;6.85;5.43;;;;;;;10.09;64.84;101451.84;4896546;29;20874;-92
2020/12/18 06:24:42;;;;;;;6.97;5.18;;;;;;;9.71;65.10;101410.13;4897129;29;20552;-92
2020/12/18 06:27:12;;;;;;;7.65;5.53;;;;;;;11.25;64.93;101654.56;4893480;29;20146;-93
2020/12/18 06:29:39;;;;;;;6.22;4.97;;;;;;;8.02;64.58;101137.41;4898581;29;20049;-93
2020/12/18 06:32:26;;;;;;;7.13;5.43;;;;;;;11.29;65.08;101642.91;4893488;29;20057;-93
2020/12/18 06:34:54;;;;;;;9.15;5.50;;;;;;;10.99;65.39;101630.25;4911788;29;20052;-92
2020/12/18 06:37:40;;;;;;;7.00;4.85;;;;;;;11.24;64.95;101645.00;4906669;29;20080;-92
2020/12/18 06:40:06;;;;;;;7.22;5.40;;;;;;;10.12;64.64;101510.91;4904246;29;20143;-93
2020/12/18 06:42:32;;;;;;;6.85;4.97;;;;;;;10.91;65.12;101636.03;4896042;29;20553;-92
2020/12/18 06:45:09;;;;;;;8.93;5.20;;;;;;;11.11;65.36;101652.09;4895010;29;20113;-91
2020/12/18 06:47:37;;;;;;;9.20;5.72;;;;;;;10.56;65.21;101581.00;4902379;29;20596;-91
2020/12/18 06:50:22;;;;;;;6.18;4.90;;;;;;;10.25;64.94;101511.69;4892811;29;20139;-93
2020/12/18 06:52:53;;;;;;;7.18;4.88;;;;;;;10.93;65.01;101649.84;4892555;29;20067;-91
2020/12/18 06:55:29;;;;;;;7.90;5.55;;;;;;;11.06;65.14;101646.38;4912424;29;20056;-93
2020/12/18 08:22:49;;;;;;;6.13;4.30;;;;;;;10.37;66.24;101633.78;1128568;23;20319;-93
2020/12/18 08:25:18;;;;;;;7.55;3.67;;;;;;;10.23;66.75;101633.88;4915900;29;20144;-93
2020/12/18 08:27:53;;;;;;;4.97;3.80;;;;;;;9.26;66.58;101459.38;4914539;29;20077;-94
2020/12/18 08:30:47;;;;;;;7.90;4.13;;;;;;;10.43;66.75;101638.56;4902016;29;20056;-95
2020/12/18 08:33:19;;;;;;;5.95;3.80;;;;;;;10.35;66.57;101642.66;4891209;29;20060;-94
2020/12/18 08:36:01;;;;;;;4.75;3.58;;;;;;;9.90;66.88;101554.22;4889309;29;20561;-95
2020/12/18 13:29:14;;;;;;;3.08;1.45;;;;;;;13.20;61.78;101568.63;633976;23;20334;-91
2020/12/18 13:31:41;;;;;;;2.95;1.35;;;;;;;13.00;61.64;101566.78;4899851;29;20098;-91
2020/12/18 13:34:07;;;;;;;3.55;1.38;;;;;;;11.34;61.39;101286.38;4904673;29;20611;-91
2020/12/18 13:36:33;;;;;;;3.25;1.50;;;;;;;12.46;61.75;101484.53;4892357;29;20082;-91
2020/12/18 13:38:59;;;;;;;2.22;1.35;;;;;;;11.30;61.58;101296.25;4899234;29;20107;-90
2020/12/18 13:41:25;;;;;;;3.05;1.38;;;;;;;9.88;61.80;101054.44;4897324;29;20408;-90
2020/12/18 13:43:51;;;;;;;3.05;1.73;;;;;;;12.87;61.88;101536.28;4901484;29;20113;-90
2020/12/18 13:46:18;;;;;;;2.28;1.35;;;;;;;12.90;62.05;101535.22;4913035;29;20081;-90
2020/12/18 13:48:45;;;;;;;3.60;1.50;;;;;;;13.02;61.79;101549.94;4902822;29;20052;-91
2020/12/18 13:51:11;;;;;;;2.38;1.42;;;;;;;12.48;61.80;101448.53;4907926;29;20416;-91
2020/12/18 13:53:38;;;;;;;2.70;1.42;;;;;;;13.00;61.71;101528.25;4900746;29;20052;-91
2020/12/18 13:56:04;;;;;;;2.35;1.58;;;;;;;12.67;61.89;101488.06;4916031;29;20723;-91
2020/12/18 13:58:43;;;;;;;4.30;1.77;;;;;;;11.56;61.50;101312.53;4903119;29;20138;-91
2020/12/18 14:01:09;;;;;;;2.88;1.75;;;;;;;10.94;61.53;101222.28;4899727;29;20513;-91
2020/12/18 14:03:35;;;;;;;3.88;1.45;;;;;;;11.75;61.65;101342.50;4898538;29;20052;-90
2020/12/18 14:06:01;;;;;;;3.20;1.83;;;;;;;12.54;61.68;101455.88;4911557;29;20476;-90
2020/12/18 14:08:27;;;;;;;3.05;1.45;;;;;;;9.57;61.19;100981.06;4906379;29;20052;-91
2020/12/18 14:10:56;;;;;;;2.90;1.40;;;;;;;12.95;61.68;101525.16;4902296;29;20083;-90
2020/12/18 14:13:22;;;;;;;2.20;1.35;;;;;;;12.79;61.26;101498.50;4917126;29;20131;-91
2020/12/18 14:15:48;;;;;;;3.53;1.70;;;;;;;12.66;61.78;101477.66;4901435;29;20112;-91
2020/12/18 14:18:14;;;;;;;4.10;1.70;;;;;;;12.46;61.37;101453.88;4908400;29;20048;-91
2020/12/18 14:20:40;;;;;;;3.00;1.65;;;;;;;11.42;61.32;101265.66;4903351;29;20449;-91
2020/12/18 14:23:06;;;;;;;3.88;1.83;;;;;;;9.06;61.14;100876.22;4901150;29;20072;-91
2020/12/18 14:25:32;;;;;;;3.28;1.42;;;;;;;11.23;61.27;101241.88;4895577;29;20469;-91
2020/12/18 14:27:58;;;;;;;3.10;1.77;;;;;;;12.63;61.47;101464.78;4899000;29;20086;-91
2020/12/18 14:30:25;;;;;;;4.22;1.45;;;;;;;12.29;61.30;101409.81;4898988;29;20075;-91
2020/12/18 14:32:51;;;;;;;2.38;1.45;;;;;;;11.03;61.41;101204.19;4898434;29;20066;-91
2020/12/18 14:35:17;;;;;;;2.85;1.67;;;;;;;10.83;61.40;101175.19;4908121;29;20072;-91
2020/12/18 14:37:43;;;;;;;3.47;1.70;;;;;;;10.64;61.26;101161.88;4900451;29;20079;-91
2020/12/18 14:40:09;;;;;;;4.07;1.60;;;;;;;10.33;61.05;101122.44;4903423;29;20130;-90
2020/12/18 14:42:35;;;;;;;4.35;1.75;;;;;;;11.93;61.14;101369.88;4897407;29;20186;-91
2020/12/18 14:45:02;;;;;;;2.33;1.50;;;;;;;12.44;61.31;101460.19;4918788;29;20091;-90
2020/12/18 14:47:28;;;;;;;3.33;1.30;;;;;;;9.92;61.24;101044.56;4900519;29;20056;-90
2020/12/18 14:49:54;;;;;;;4.18;2.05;;;;;;;10.69;61.29;101178.88;4907031;29;20115;-91
2020/12/18 14:52:21;;;;;;;4.88;1.85;;;;;;;12.22;61.49;101429.63;4899478;29;20055;-90
2020/12/18 14:54:47;;;;;;;4.40;1.80;;;;;;;10.98;61.22;101230.72;4902961;29;20134;-90
2020/12/18 14:57:13;;;;;;;2.05;1.35;;;;;;;11.30;61.30;101285.78;4916816;29;20488;-91
2020/12/18 14:59:40;;;;;;;2.65;1.70;;;;;;;12.45;61.52;101461.88;4900664;29;20059;-90
2020/12/18 15:02:07;;;;;;;3.33;1.70;;;;;;;12.37;61.73;101448.56;4896328;29;20104;-91
2020/12/18 15:04:34;;;;;;;3.67;1.98;;;;;;;12.43;61.51;101463.78;4897746;29;20058;-90
2020/12/18 15:07:01;;;;;;;2.50;1.50;;;;;;;12.17;61.53;101443.13;4899116;29;20066;-90
2020/12/18 15:09:27;;;;;;;2.75;1.83;;;;;;;11.72;61.73;101364.56;4900600;29;20048;-91
2020/12/18 15:11:53;;;;;;;3.53;1.42;;;;;;;12.04;61.33;101443.25;4900145;29;20405;-89
2020/12/18 15:14:19;;;;;;;2.70;1.55;;;;;;;12.08;61.35;101443.84;4899914;29;20818;-89
2020/12/18 15:16:45;;;;;;;2.42;1.60;;;;;;;11.64;61.91;101372.19;4902753;29;20131;-89
2020/12/18 15:19:11;;;;;;;3.08;1.65;;;;;;;12.10;61.72;101435.88;4893148;29;20090;-91
2020/12/18 15:21:37;;;;;;;3.20;1.60;;;;;;;11.33;61.38;101329.22;4899591;29;20047;-90
2020/12/18 15:24:03;;;;;;;3.30;1.50;;;;;;;7.73;61.11;100735.81;4897519;29;20551;-91
2020/12/18 15:26:30;;;;;;;3.13;1.40;;;;;;;8.21;61.42;100824.34;4902023;29;20056;-90
2020/12/18 15:28:56;;;;;;;2.55;1.23;;;;;;;10.51;61.72;101205.66;4908309;29;20088;-92
2020/12/18 15:31:22;;;;;;;2.60;2.00;;;;;;;10.78;61.87;101248.00;4900296;29;20052;-91
2020/12/18 15:33:48;;;;;;;4.28;1.58;;;;;;;11.83;61.85;101443.16;4899218;29;20083;-90
2020/12/18 15:36:21;;;;;;;4.22;1.40;;;;;;;9.56;61.65;101060.34;4903328;29;20055;-91
2020/12/18 15:38:52;;;;;;;3.15;1.50;;;;;;;11.87;61.79;101440.34;4899455;29;20045;-91
2020/12/18 15:41:19;;;;;;;3.33;1.73;;;;;;;8.35;61.30;100896.28;4896424;29;20044;-91
2020/12/18 15:43:45;;;;;;;4.90;1.92;;;;;;;11.93;61.86;101463.44;4900287;29;20131;-91
2020/12/18 15:46:13;;;;;;;4.30;1.75;;;;;;;11.94;61.97;101468.53;4902073;29;20148;-90
2020/12/18 15:48:40;;;;;;;3.55;1.48;;;;;;;11.39;62.31;101379.34;4890337;29;20910;-90
2020/12/18 15:51:08;;;;;;;2.58;1.52;;;;;;;11.51;61.98;101413.41;4890647;29;20044;-90
2020/12/18 15:53:36;;;;;;;3.60;1.90;;;;;;;11.77;62.25;101435.75;4901937;29;20393;-90
2020/12/18 15:56:02;;;;;;;8.90;1.70;;;;;;;8.61;61.50;100928.28;4908284;29;20083;-91
2020/12/18 15:58:28;;;;;;;3.15;1.70;;;;;;;11.33;62.08;101371.13;4900506;29;20134;-90
2020/12/18 16:00:54;;;;;;;5.13;1.52;;;;;;;8.34;61.91;100899.81;4905035;29;20052;-91
2020/12/18 16:03:20;;;;;;;3.13;1.58;;;;;;;11.54;62.33;101419.22;4902349;29;20488;-90
2020/12/18 16:05:46;;;;;;;3.00;1.65;;;;;;;11.50;62.42;101430.06;4899301;29;20160;-90
2020/12/18 16:08:12;;;;;;;4.28;1.60;;;;;;;11.60;62.63;101433.63;4902631;29;20123;-90
2020/12/18 16:10:39;;;;;;;4.93;1.70;;;;;;;10.60;62.05;101275.56;4903373;29;22401;-91
2020/12/18 16:13:05;;;;;;;2.70;1.60;;;;;;;11.51;62.64;101429.94;4905665;29;20103;-90
2020/12/18 16:15:35;;;;;;;5.35;2.08;;;;;;;9.08;62.07;101029.09;4894441;29;20056;-91
2020/12/18 16:18:01;;;;;;;3.03;1.70;;;;;;;11.05;62.69;101383.72;4917298;29;20138;-91
2020/12/18 16:20:27;;;;;;;4.25;1.77;;;;;;;8.15;61.65;100903.78;4918364;29;20048;-90
2020/12/18 16:23:15;;;;;;;4.63;1.80;;;;;;;7.73;61.59;100835.59;4822951;29;20046;-91
2020/12/18 16:25:41;;;;;;;3.88;1.85;;;;;;;11.10;62.69;101399.91;4825929;29;20066;-91
2020/12/18 16:28:08;;;;;;;1.45;1.35;;;;;;;7.74;62.00;100857.25;4821477;29;20582;-91
2020/12/18 16:30:34;;;;;;;2.83;1.50;;;;;;;10.23;62.29;101267.84;4821521;29;20062;-91
2020/12/18 16:33:00;;;;;;;3.47;2.00;;;;;;;11.44;62.82;101472.44;4822209;29;20111;-91
2020/12/18 16:35:27;;;;;;;3.80;1.75;;;;;;;11.28;62.82;101457.06;4821670;29;20142;-91
2020/12/18 16:37:53;;;;;;;6.35;1.88;;;;;;;7.99;62.14;100918.84;4820737;29;20117;-90
2020/12/18 16:40:19;;;;;;;3.95;1.58;;;;;;;11.20;62.56;101449.81;4840817;29;20058;-91
2020/12/18 16:42:45;;;;;;;3.25;1.67;;;;;;;11.25;62.36;101455.53;4825590;29;20118;-91
2020/12/18 16:45:12;;;;;;;2.80;1.52;;;;;;;9.18;62.09;101117.19;4819941;29;20081;-91
2020/12/18 16:47:42;;;;;;;2.30;1.60;;;;;;;9.33;62.26;101134.31;4854719;29;20052;-90
2020/12/18 16:50:08;;;;;;;2.97;1.80;;;;;;;10.63;62.61;101374.72;4901461;29;20055;-91
2020/12/18 16:52:36;;;;;;;1.80;1.42;;;;;;;7.81;62.20;100916.59;4899125;29;20058;-90
2020/12/18 16:55:03;;;;;;;2.47;1.58;;;;;;;9.93;62.32;101245.66;4896860;29;20086;-91
2020/12/18 16:57:29;;;;;;;2.78;1.70;;;;;;;11.41;62.57;101485.78;4894691;29;20127;-91
2020/12/18 16:59:55;;;;;;;1.67;1.45;;;;;;;9.03;62.38;101124.31;4896605;29;20179;-91
2020/12/18 17:02:25;;;;;;;2.58;1.65;;;;;;;9.72;62.12;101253.28;4900747;29;20464;-91
2020/12/18 17:04:52;;;;;;;3.88;1.77;;;;;;;7.57;62.02;100877.50;4897272;29;20367;-91
2020/12/18 17:07:19;;;;;;;7.60;1.88;;;;;;;8.07;62.19;100950.38;4896376;29;20068;-91
2020/12/18 17:09:48;;;;;;;2.15;1.60;;;;;;;8.85;62.13;101085.56;4897259;29;20477;-91
2020/12/18 17:12:14;;;;;;;2.97;1.85;;;;;;;11.05;62.74;101449.16;4896916;29;20467;-91
2020/12/18 17:14:40;;;;;;;2.88;1.88;;;;;;;9.65;62.49;101219.91;4896426;29;20056;-90
2020/12/18 17:17:09;;;;;;;3.55;1.70;;;;;;;11.32;62.86;101489.94;4895180;29;20057;-90
2020/12/18 17:19:35;;;;;;;3.58;1.88;;;;;;;11.30;62.93;101500.50;4894574;29;20187;-91
2020/12/18 17:22:06;;;;;;;2.90;1.75;;;;;;;9.53;62.41;101235.53;4902985;29;20048;-90
2020/12/18 17:24:42;;;;;;;3.47;1.90;;;;;;;11.11;62.71;101467.06;4897529;29;20060;-91
2020/12/18 17:27:08;;;;;;;3.58;2.10;;;;;;;8.14;61.86;100995.88;4897910;29;20059;-91
2020/12/18 17:29:35;;;;;;;6.03;2.10;;;;;;;11.24;63.11;101506.22;4902669;29;20056;-90
